createdAt,value
2017-05-15T00:00:20.497Z,77.99
2017-05-15T00:02:51.295Z,77.67
2017-05-15T00:05:22.069Z,77.71
2017-05-15T00:07:52.996Z,77.55
2017-05-15T00:10:23.567Z,77.50
2017-05-15T00:12:54.399Z,77.45
2017-05-15T00:15:25.176Z,77.56
2017-05-15T00:17:56.028Z,77.32
2017-05-15T00:20:26.816Z,77.79
2017-05-15T00:22:57.681Z,77.54
2017-05-15T00:25:28.446Z,77.78
2017-05-15T00:27:59.259Z,77.65
2017-05-15T00:30:30.022Z,77.37
2017-05-15T00:33:00.814Z,77.42
2017-05-15T00:35:31.582Z,77.61
2017-05-15T00:38:02.392Z,77.85
2017-05-15T00:40:33.174Z,77.68
2017-05-15T00:43:04.008Z,77.98
2017-05-15T00:45:34.862Z,77.82
2017-05-15T00:48:05.691Z,78.05
2017-05-15T00:50:36.489Z,77.83
2017-05-15T00:53:07.305Z,77.84
2017-05-15T00:55:38.094Z,77.79
2017-05-15T00:58:08.926Z,77.99
2017-05-15T01:00:39.763Z,78.25
2017-05-15T01:03:10.709Z,78.28
2017-05-15T01:05:41.545Z,78.38
2017-05-15T01:08:12.343Z,78.25
2017-05-15T01:10:43.222Z,78.14
2017-05-15T01:13:14.047Z,78.04
2017-05-15T01:15:44.824Z,77.85
2017-05-15T01:18:15.697Z,78.15
2017-05-15T01:20:46.462Z,78.32
2017-05-15T01:23:17.310Z,78.36
2017-05-15T01:25:48.091Z,78.44
2017-05-15T01:28:18.902Z,78.12
2017-05-15T01:30:49.662Z,78.43
2017-05-15T01:33:20.465Z,78.20
2017-05-15T01:35:50.613Z,78.00
2017-05-15T01:38:21.256Z,77.91
2017-05-15T01:40:51.294Z,78.06
2017-05-15T01:43:21.747Z,78.09
2017-05-15T01:45:52.131Z,77.98
2017-05-15T01:48:22.589Z,77.80
2017-05-15T01:50:52.730Z,77.91
2017-05-15T01:53:23.446Z,77.78
2017-05-15T01:55:53.497Z,77.68
2017-05-15T01:58:23.978Z,77.36
2017-05-15T02:00:54.042Z,77.62
2017-05-15T02:03:24.153Z,77.75
2017-05-15T02:05:54.025Z,77.57
2017-05-15T02:08:24.440Z,77.67
2017-05-15T02:10:54.639Z,77.75
2017-05-15T02:13:24.679Z,77.72
2017-05-15T02:15:55.091Z,77.37
2017-05-15T02:18:25.001Z,77.26
2017-05-15T02:20:55.222Z,77.20
2017-05-15T02:23:25.085Z,77.52
2017-05-15T02:25:54.970Z,77.46
2017-05-15T02:28:25.024Z,77.71
2017-05-15T02:30:55.089Z,77.90
2017-05-15T02:33:25.482Z,78.37
2017-05-15T02:35:56.279Z,78.38
2017-05-15T02:38:27.081Z,78.43
2017-05-15T02:40:57.881Z,78.54
2017-05-15T02:43:28.646Z,78.55
2017-05-15T02:45:58.727Z,78.77
2017-05-15T02:48:28.947Z,78.82
2017-05-15T02:50:59.649Z,78.94
2017-05-15T02:53:30.431Z,78.63
2017-05-15T02:56:01.360Z,79.10
2017-05-15T02:58:31.731Z,79.34
2017-05-15T03:01:02.525Z,79.57
2017-05-15T03:03:33.288Z,79.83
2017-05-15T03:06:03.750Z,80.32
2017-05-15T03:08:35.360Z,80.08
2017-05-15T03:11:05.844Z,80.23
2017-05-15T03:13:35.882Z,80.38
2017-05-15T03:16:06.714Z,80.96
2017-05-15T03:18:36.997Z,80.68
2017-05-15T03:21:07.820Z,80.78
2017-05-15T03:23:38.646Z,80.49
2017-05-15T03:26:09.136Z,80.70
2017-05-15T03:28:39.547Z,81.19
2017-05-15T03:31:09.810Z,81.01
2017-05-15T03:33:39.887Z,80.96
2017-05-15T03:36:10.232Z,80.72
2017-05-15T03:38:41.158Z,80.99
2017-05-15T03:41:11.993Z,80.59
2017-05-15T03:43:42.070Z,80.68
2017-05-15T03:46:12.187Z,80.39
2017-05-15T03:48:42.664Z,80.26
2017-05-15T03:51:13.104Z,80.91
2017-05-15T03:53:43.494Z,81.41
2017-05-15T03:56:14.317Z,81.37
2017-05-15T03:58:44.370Z,81.52
2017-05-15T04:01:15.306Z,81.75
2017-05-15T04:03:45.263Z,81.69
2017-05-15T04:06:15.331Z,81.69
2017-05-15T04:08:46.232Z,81.52
2017-05-15T04:11:16.677Z,81.59
2017-05-15T04:13:46.756Z,81.45
2017-05-15T04:16:17.197Z,81.35
2017-05-15T04:18:48.690Z,81.43
2017-05-15T04:21:19.143Z,81.70
2017-05-15T04:23:49.565Z,81.62
2017-05-15T04:26:19.959Z,81.47
2017-05-15T04:28:50.743Z,81.32
2017-05-15T04:31:21.517Z,81.08
2017-05-15T04:33:52.644Z,81.44
2017-05-15T04:36:22.699Z,81.40
2017-05-15T04:38:53.632Z,81.02
2017-05-15T04:41:24.561Z,81.06
2017-05-15T04:43:55.021Z,81.06
2017-05-15T04:46:25.430Z,80.54
2017-05-15T04:48:55.979Z,79.99
2017-05-15T04:51:26.747Z,79.55
2017-05-15T04:53:57.610Z,79.18
2017-05-15T04:56:28.383Z,79.40
2017-05-15T04:58:58.825Z,79.43
2017-05-15T05:01:29.225Z,79.13
2017-05-15T05:03:59.338Z,79.39
2017-05-15T05:06:29.377Z,79.41
2017-05-15T05:08:59.855Z,79.02
2017-05-15T05:11:30.278Z,79.03
2017-05-15T05:14:00.764Z,78.79
2017-05-15T05:16:31.522Z,78.87
2017-05-15T05:19:01.682Z,78.61
2017-05-15T05:21:31.534Z,78.65
2017-05-15T05:24:28.028Z,78.07
2017-05-15T05:27:14.443Z,78.18
2017-05-15T05:29:54.247Z,78.09
2017-05-15T05:32:46.581Z,78.10
2017-05-15T05:35:44.626Z,77.93
2017-05-15T05:38:36.035Z,77.77
2017-05-15T05:41:24.882Z,77.44
2017-05-15T05:43:57.806Z,76.98
2017-05-15T05:46:28.414Z,76.68
2017-05-15T05:49:01.011Z,76.28
2017-05-15T05:51:32.967Z,76.11
2017-05-15T05:54:03.026Z,76.10
2017-05-15T05:56:51.404Z,76.32
2017-05-15T05:59:52.828Z,75.84
2017-05-15T06:02:44.347Z,75.29
2017-05-15T06:05:31.626Z,74.99
2017-05-15T06:11:34.644Z,74.51
2017-05-15T06:14:17.637Z,74.43
2017-05-15T06:17:00.949Z,73.66
2017-05-15T06:19:31.306Z,73.43
2017-05-15T06:22:02.771Z,73.36
2017-05-15T06:24:46.038Z,73.51
2017-05-15T06:27:19.051Z,72.47
2017-05-15T06:29:51.031Z,72.83
2017-05-15T06:32:22.978Z,72.56
2017-05-15T06:34:54.563Z,72.26
2017-05-15T06:37:24.665Z,72.43
2017-05-15T06:40:06.640Z,72.73
2017-05-15T06:42:40.235Z,72.75
2017-05-15T06:45:11.492Z,72.79
2017-05-15T06:47:43.214Z,72.25
2017-05-15T06:50:14.739Z,72.78
2017-05-15T06:52:46.282Z,72.85
2017-05-15T06:55:17.819Z,72.68
2017-05-15T06:57:49.201Z,71.22
2017-05-15T07:00:20.772Z,71.13
2017-05-15T07:02:52.094Z,71.64
2017-05-15T07:05:24.204Z,71.33
2017-05-15T07:07:53.780Z,72.00
2017-05-15T07:10:24.559Z,71.69
2017-05-15T07:12:55.359Z,72.23
2017-05-15T07:15:26.168Z,72.77
2017-05-15T07:17:57.066Z,72.78
2017-05-15T07:20:27.919Z,72.92
2017-05-15T07:22:58.745Z,72.93
2017-05-15T07:25:29.558Z,73.00
2017-05-15T07:28:00.430Z,72.79
2017-05-15T07:30:31.207Z,72.99
2017-05-15T07:33:02.016Z,73.23
2017-05-15T07:35:32.798Z,73.47
2017-05-15T07:38:03.626Z,75.52
2017-05-15T07:40:34.462Z,75.61
2017-05-15T07:43:05.299Z,76.63
2017-05-15T07:45:36.069Z,76.64
2017-05-15T07:48:07.037Z,77.09
2017-05-15T07:50:37.819Z,77.55
2017-05-15T07:53:08.659Z,77.52
2017-05-15T07:55:39.477Z,78.02
2017-05-15T07:58:11.753Z,78.92
2017-05-15T08:00:42.550Z,78.86
2017-05-15T08:03:13.365Z,78.81
2017-05-15T08:05:43.551Z,78.67
2017-05-15T08:08:14.394Z,78.82
2017-05-15T08:10:45.220Z,79.68
2017-05-15T08:13:16.123Z,79.24
2017-05-15T08:15:46.903Z,79.14
2017-05-15T08:18:17.980Z,78.83
2017-05-15T08:20:48.995Z,78.61
2017-05-15T08:23:19.948Z,78.28
2017-05-15T08:25:51.163Z,77.77
2017-05-15T08:28:22.430Z,77.47
2017-05-15T08:30:53.503Z,77.16
2017-05-15T08:33:24.611Z,76.76
2017-05-15T08:35:55.849Z,75.67
2017-05-15T08:38:27.049Z,75.26
2017-05-15T08:40:58.193Z,75.09
2017-05-15T08:43:29.284Z,74.18
2017-05-15T08:46:00.522Z,73.78
2017-05-15T08:48:31.618Z,72.56
2017-05-15T08:51:03.149Z,69.86
2017-05-15T08:53:34.245Z,66.63
2017-05-15T08:56:05.394Z,66.63
2017-05-15T08:58:37.030Z,63.81
2017-05-15T09:01:08.792Z,64.12
2017-05-15T09:03:39.810Z,57.28
2017-05-15T09:06:11.394Z,56.91
2017-05-15T09:08:43.227Z,55.84
2017-05-15T09:11:15.076Z,53.91
2017-05-15T09:13:47.648Z,54.37
2017-05-15T09:16:18.929Z,55.82
2017-05-15T09:18:49.764Z,57.06
2017-05-15T09:21:20.551Z,58.14
2017-05-15T09:23:51.338Z,59.35
2017-05-15T09:26:22.121Z,60.01
2017-05-15T09:28:52.942Z,61.00
2017-05-15T09:31:23.715Z,60.88
2017-05-15T09:33:54.528Z,60.03
2017-05-15T09:36:25.287Z,59.35
2017-05-15T09:38:56.128Z,59.47
2017-05-15T09:41:26.918Z,60.35
2017-05-15T09:43:57.734Z,61.08
2017-05-15T09:46:28.498Z,59.51
2017-05-15T09:48:59.357Z,58.37
2017-05-15T09:51:30.173Z,57.95
2017-05-15T09:54:00.989Z,56.98
2017-05-15T09:56:31.755Z,57.76
2017-05-15T09:59:02.573Z,57.68
2017-05-15T10:01:34.201Z,57.96
2017-05-15T10:04:05.022Z,58.12
2017-05-15T10:06:35.826Z,57.11
2017-05-15T10:09:06.675Z,55.39
2017-05-15T10:11:37.445Z,57.21
2017-05-15T10:14:08.287Z,57.01
2017-05-15T10:16:39.054Z,57.86
2017-05-15T10:19:09.891Z,57.44
2017-05-15T10:21:40.856Z,57.39
2017-05-15T10:24:11.770Z,55.68
2017-05-15T10:26:42.562Z,55.52
2017-05-15T10:29:13.355Z,57.10
2017-05-15T10:31:44.198Z,56.84
2017-05-15T10:34:15.085Z,57.05
2017-05-15T10:36:45.852Z,56.59
2017-05-15T10:39:16.718Z,55.25
2017-05-15T10:41:47.489Z,53.76
2017-05-15T10:44:18.298Z,53.69
2017-05-15T10:46:49.057Z,51.91
2017-05-15T10:49:19.895Z,51.02
2017-05-15T10:51:50.696Z,50.24
2017-05-15T10:54:21.488Z,47.57
2017-05-15T10:56:52.250Z,49.01
2017-05-15T10:59:23.053Z,49.16
2017-05-15T11:01:53.820Z,50.65
2017-05-15T11:04:24.628Z,49.34
2017-05-15T11:06:55.413Z,49.56
2017-05-15T11:09:26.261Z,49.33
2017-05-15T11:11:57.722Z,50.35
2017-05-15T11:14:28.999Z,50.32
2017-05-15T11:16:59.907Z,50.61
2017-05-15T11:19:30.969Z,51.24
2017-05-15T11:22:02.118Z,51.82
2017-05-15T11:24:33.504Z,51.83
2017-05-15T11:27:04.423Z,51.69
2017-05-15T11:29:35.788Z,50.94
2017-05-15T11:32:06.885Z,51.15
2017-05-15T11:34:37.964Z,50.73
2017-05-15T11:37:08.806Z,51.51
2017-05-15T11:39:39.826Z,50.96
2017-05-15T11:42:10.806Z,51.31
2017-05-15T11:44:41.841Z,50.20
2017-05-15T11:47:12.820Z,50.38
2017-05-15T11:49:43.632Z,49.34
2017-05-15T11:52:14.395Z,48.07
2017-05-15T11:54:45.237Z,47.36
2017-05-15T11:57:16.014Z,47.41
2017-05-15T11:59:46.843Z,46.82
2017-05-15T12:02:17.713Z,46.47
2017-05-15T12:04:48.920Z,46.39
2017-05-15T12:07:19.698Z,47.27
2017-05-15T12:09:50.551Z,47.05
2017-05-15T12:12:21.356Z,46.20
2017-05-15T12:14:52.143Z,47.02
2017-05-15T12:17:22.900Z,47.24
2017-05-15T12:19:53.707Z,47.85
2017-05-15T12:22:24.560Z,47.25
2017-05-15T12:24:55.367Z,47.43
2017-05-15T12:27:26.154Z,47.46
2017-05-15T12:29:57.030Z,47.35
2017-05-15T12:32:30.005Z,47.60
2017-05-15T12:35:04.266Z,47.00
2017-05-15T12:37:38.501Z,46.91
2017-05-15T12:40:11.825Z,46.24
2017-05-15T12:42:44.747Z,45.35
2017-05-15T12:45:18.537Z,45.95
2017-05-15T12:47:51.496Z,45.25
2017-05-15T12:50:24.690Z,44.15
2017-05-15T12:52:56.758Z,45.56
2017-05-15T12:55:29.490Z,44.76
2017-05-15T12:58:03.075Z,43.04
2017-05-15T13:00:33.914Z,42.68
2017-05-15T13:03:04.669Z,41.35
2017-05-15T13:05:35.514Z,42.10
2017-05-15T13:08:06.291Z,41.46
2017-05-15T13:10:37.223Z,41.06
2017-05-15T13:13:07.994Z,41.65
2017-05-15T13:15:38.785Z,39.05
2017-05-15T13:18:09.530Z,38.42
2017-05-15T13:20:40.326Z,36.30
2017-05-15T13:23:11.261Z,36.00
2017-05-15T13:25:42.270Z,34.63
2017-05-15T13:28:13.067Z,35.06
2017-05-15T13:30:43.871Z,34.69
2017-05-15T13:33:14.631Z,34.80
2017-05-15T13:35:45.383Z,34.77
2017-05-15T13:38:16.190Z,34.76
2017-05-15T13:40:46.972Z,35.20
2017-05-15T13:43:17.807Z,36.12
2017-05-15T13:45:48.569Z,37.02
2017-05-15T13:48:19.445Z,38.38
2017-05-15T13:50:50.225Z,39.12
2017-05-15T13:53:21.016Z,38.84
2017-05-15T13:55:51.826Z,39.06
2017-05-15T13:58:22.618Z,39.47
2017-05-15T14:00:53.599Z,39.94
2017-05-15T14:03:24.414Z,39.81
2017-05-15T14:05:55.177Z,40.01
2017-05-15T14:08:25.989Z,40.82
2017-05-15T14:10:56.763Z,41.30
2017-05-15T14:13:27.580Z,41.16
2017-05-15T14:15:58.369Z,42.60
2017-05-15T14:18:29.146Z,42.66
2017-05-15T14:20:59.921Z,42.65
2017-05-15T14:23:30.749Z,42.57
2017-05-15T14:26:01.517Z,42.34
2017-05-15T14:28:32.338Z,42.35
2017-05-15T14:31:03.092Z,42.96
2017-05-15T14:33:33.891Z,42.38
2017-05-15T14:36:04.373Z,41.86
2017-05-15T14:38:35.218Z,42.88
2017-05-15T14:41:05.997Z,42.27
2017-05-15T14:43:36.794Z,42.78
2017-05-15T14:46:07.547Z,42.97
2017-05-15T14:48:38.370Z,43.13
2017-05-15T14:51:09.151Z,42.49
2017-05-15T14:53:39.953Z,42.27
2017-05-15T14:56:10.765Z,42.49
2017-05-15T14:58:41.597Z,42.25
2017-05-15T15:01:12.405Z,42.58
2017-05-15T15:03:43.199Z,43.35
2017-05-15T15:06:13.958Z,43.33
2017-05-15T15:08:44.762Z,43.29
2017-05-15T15:11:15.510Z,43.54
2017-05-15T15:13:46.310Z,43.68
2017-05-15T15:16:17.091Z,44.12
2017-05-15T15:18:47.923Z,43.88
2017-05-15T15:21:18.694Z,44.38
2017-05-15T15:23:49.549Z,44.46
2017-05-15T15:26:20.326Z,44.98
2017-05-15T15:28:51.170Z,45.16
2017-05-15T15:31:21.943Z,45.58
2017-05-15T15:33:52.753Z,45.85
2017-05-15T15:36:23.523Z,45.18
2017-05-15T15:38:54.414Z,45.13
2017-05-15T15:41:25.185Z,45.14
2017-05-15T15:43:56.025Z,45.43
2017-05-15T15:46:26.824Z,45.16
2017-05-15T15:48:57.627Z,45.52
2017-05-15T15:51:28.442Z,45.50
2017-05-15T15:53:59.287Z,45.57
2017-05-15T15:56:30.066Z,44.83
2017-05-15T15:59:00.883Z,45.23
2017-05-15T16:01:31.691Z,45.17
2017-05-15T16:04:02.544Z,45.09
2017-05-15T16:06:33.320Z,45.07
2017-05-15T16:09:03.584Z,45.22
2017-05-15T16:11:35.214Z,45.07
2017-05-15T16:14:06.054Z,45.67
2017-05-15T16:16:36.847Z,44.48
2017-05-15T16:19:07.658Z,43.52
2017-05-15T16:21:38.415Z,43.43
2017-05-15T16:24:09.374Z,43.62
2017-05-15T16:26:40.135Z,42.79
2017-05-15T16:29:11.193Z,42.84
2017-05-15T16:31:42.098Z,42.60
2017-05-15T16:34:12.917Z,43.03
2017-05-15T16:36:43.742Z,42.53
2017-05-15T16:39:14.559Z,42.02
2017-05-15T16:41:45.395Z,42.07
2017-05-15T16:44:16.216Z,42.36
2017-05-15T16:46:47.005Z,40.83
2017-05-15T16:49:17.794Z,39.96
2017-05-15T16:51:48.588Z,40.00
2017-05-15T16:54:19.475Z,40.07
2017-05-15T16:56:50.245Z,40.37
2017-05-15T16:59:21.066Z,40.92
2017-05-15T17:01:51.818Z,41.18
2017-05-15T17:04:22.603Z,40.70
2017-05-15T17:06:53.368Z,40.47
2017-05-15T17:09:24.238Z,40.60
2017-05-15T17:11:55.019Z,40.67
2017-05-15T17:14:25.826Z,39.89
2017-05-15T17:16:57.232Z,40.34
2017-05-15T17:19:28.033Z,40.22
2017-05-15T17:21:58.803Z,38.54
2017-05-15T17:24:29.647Z,39.76
2017-05-15T17:27:00.480Z,39.50
2017-05-15T17:29:31.299Z,40.22
2017-05-15T17:32:02.079Z,40.07
2017-05-15T17:34:35.093Z,40.65
2017-05-15T17:37:05.878Z,40.20
2017-05-15T17:39:36.762Z,40.91
2017-05-15T17:42:07.611Z,41.50
2017-05-15T17:44:38.430Z,42.21
2017-05-15T17:47:09.191Z,42.50
2017-05-15T17:49:40.008Z,42.29
2017-05-15T17:52:10.783Z,44.61
2017-05-15T17:54:42.536Z,45.66
2017-05-15T17:57:13.297Z,46.34
2017-05-15T17:59:44.229Z,46.72
2017-05-15T18:02:14.978Z,47.13
2017-05-15T18:04:45.788Z,47.41
2017-05-15T18:07:16.569Z,47.99
2017-05-15T18:09:47.462Z,48.08
2017-05-15T18:12:18.255Z,48.13
2017-05-15T18:14:49.134Z,48.51
2017-05-15T18:17:19.915Z,48.83
2017-05-15T18:19:50.708Z,49.15
2017-05-15T18:22:21.519Z,48.86
2017-05-15T18:24:53.104Z,49.16
2017-05-15T18:27:24.613Z,49.29
2017-05-15T18:29:55.726Z,49.18
2017-05-15T18:32:26.703Z,49.11
2017-05-15T18:34:57.828Z,49.29
2017-05-15T18:37:28.764Z,49.79
2017-05-15T18:39:59.711Z,50.34
2017-05-15T18:42:31.010Z,51.11
2017-05-15T18:45:01.904Z,52.11
2017-05-15T18:47:32.698Z,52.75
2017-05-15T18:50:03.930Z,53.56
2017-05-15T18:52:35.234Z,53.80
2017-05-15T18:55:06.031Z,54.36
2017-05-15T18:57:36.847Z,54.14
2017-05-15T19:00:09.767Z,53.75
2017-05-15T19:02:42.399Z,53.89
2017-05-15T19:05:14.347Z,54.58
2017-05-15T19:07:45.547Z,55.15
2017-05-15T19:10:16.954Z,55.51
2017-05-15T19:12:51.026Z,56.00
2017-05-15T19:15:25.119Z,55.95
2017-05-15T19:17:58.549Z,56.43
2017-05-15T19:20:32.324Z,56.70
2017-05-15T19:23:06.127Z,57.08
2017-05-15T19:25:37.962Z,57.29
2017-05-15T19:28:09.968Z,57.69
2017-05-15T19:30:43.960Z,57.73
2017-05-15T19:33:18.341Z,57.98
2017-05-15T19:35:51.291Z,58.29
2017-05-15T19:38:24.333Z,58.65
2017-05-15T19:40:58.864Z,58.66
2017-05-15T19:43:31.830Z,58.75
2017-05-15T19:46:05.747Z,59.05
2017-05-15T19:48:39.318Z,59.16
2017-05-15T19:51:11.819Z,58.99
2017-05-15T19:53:42.670Z,59.43
2017-05-15T19:56:13.426Z,59.42
2017-05-15T19:58:45.669Z,59.20
2017-05-15T20:01:19.643Z,59.38
2017-05-15T20:03:52.451Z,59.46
2017-05-15T20:06:24.455Z,59.95
2017-05-15T20:08:56.866Z,59.80
2017-05-15T20:11:29.489Z,59.84
2017-05-15T20:14:01.515Z,59.80
2017-05-15T20:16:33.495Z,60.14
2017-05-15T20:19:05.384Z,60.17
2017-05-15T20:21:36.192Z,60.20
2017-05-15T20:24:06.997Z,60.68
2017-05-15T20:26:37.820Z,60.80
2017-05-15T20:29:08.622Z,61.37
2017-05-15T20:31:39.392Z,61.26
2017-05-15T20:34:10.236Z,61.14
2017-05-15T20:36:41.005Z,60.99
2017-05-15T20:39:11.947Z,61.03
2017-05-15T20:41:42.858Z,61.38
2017-05-15T20:44:13.666Z,61.65
2017-05-15T20:46:44.573Z,61.58
2017-05-15T20:49:15.407Z,61.52
2017-05-15T20:51:45.846Z,61.58
2017-05-15T20:54:16.675Z,62.01
2017-05-15T20:56:47.479Z,62.15
2017-05-15T20:59:18.310Z,61.92
2017-05-15T21:01:49.080Z,61.98
2017-05-15T21:04:19.886Z,62.17
2017-05-15T21:06:50.654Z,61.97
2017-05-15T21:09:21.514Z,61.65
2017-05-15T21:11:53.244Z,61.78
2017-05-15T21:14:24.052Z,61.95
2017-05-15T21:16:58.340Z,62.08
2017-05-15T21:19:29.172Z,62.03
2017-05-15T21:22:00.053Z,62.11
2017-05-15T21:24:30.916Z,62.36
2017-05-15T21:27:01.725Z,63.25
2017-05-15T21:29:32.543Z,63.02
2017-05-15T21:32:03.373Z,63.10
2017-05-15T21:34:34.186Z,63.36
2017-05-15T21:37:04.942Z,63.63
2017-05-15T21:39:35.822Z,63.90
2017-05-15T21:42:06.587Z,64.00
2017-05-15T21:44:37.403Z,64.12
2017-05-15T21:47:08.218Z,64.28
2017-05-15T21:49:39.054Z,64.15
2017-05-15T21:52:09.830Z,64.04
2017-05-15T21:54:41.551Z,63.72
2017-05-15T21:57:13.410Z,63.62
2017-05-15T21:59:44.291Z,63.82
2017-05-15T22:02:15.102Z,64.07
2017-05-15T22:04:45.961Z,64.18
2017-05-15T22:07:16.761Z,64.50
2017-05-15T22:09:47.579Z,64.67
2017-05-15T22:12:18.411Z,64.72
2017-05-15T22:14:49.241Z,64.44
2017-05-15T22:17:20.047Z,64.58
2017-05-15T22:19:50.989Z,64.60
2017-05-15T22:22:21.756Z,64.60
2017-05-15T22:24:52.563Z,64.87
2017-05-15T22:27:23.379Z,65.09
2017-05-15T22:29:54.180Z,64.97
2017-05-15T22:32:24.946Z,65.55
2017-05-15T22:34:55.749Z,65.62
2017-05-15T22:37:26.531Z,65.65
2017-05-15T22:39:58.067Z,66.11
2017-05-15T22:42:28.862Z,65.95
2017-05-15T22:44:59.690Z,66.36
2017-05-15T22:47:30.467Z,67.07
2017-05-15T22:50:01.338Z,66.89
2017-05-15T22:52:32.126Z,66.81
2017-05-15T22:55:02.983Z,67.21
2017-05-15T22:57:33.760Z,67.39
2017-05-15T23:00:06.303Z,67.74
2017-05-15T23:02:37.122Z,68.03
2017-05-15T23:05:07.951Z,68.14
2017-05-15T23:07:38.720Z,68.21
2017-05-15T23:10:10.172Z,68.89
2017-05-15T23:12:40.982Z,68.68
2017-05-15T23:15:11.861Z,68.67
2017-05-15T23:17:43.108Z,68.91
2017-05-15T23:20:13.930Z,69.05
2017-05-15T23:22:45.083Z,68.86
2017-05-15T23:25:15.914Z,69.33
2017-05-15T23:27:46.839Z,69.50
2017-05-15T23:30:17.755Z,69.52
2017-05-15T23:32:48.537Z,69.55
2017-05-15T23:35:19.361Z,69.62
2017-05-15T23:37:50.131Z,69.83
2017-05-15T23:40:21.763Z,70.20
2017-05-15T23:42:52.540Z,70.42
2017-05-15T23:45:23.346Z,70.32
2017-05-15T23:47:54.117Z,70.54
2017-05-15T23:50:24.918Z,70.54
2017-05-15T23:52:55.682Z,70.50
2017-05-15T23:55:26.530Z,70.63
2017-05-15T23:58:00.008Z,71.02
